Time;durP1;ratioP1;P1;durP2;ratioP2;P2;SDS_P1;SDS_P2;PMS_P1;PMS_P2;Temp;Humidity;BMP_temperature;BMP_pressure;BME280_temperature;BME280_humidity;BME280_pressure;Samples;Min_cycle;Max_cycle;Signal;HPM_P1;HPM_P2
2021/12/11 00:02:09;;;;;;;48.45;32.35;;;21.00;96.00;;;;;;4159668;28;20080;-68
2021/12/11 00:04:21;;;;;;;47.80;32.30;;;21.10;96.00;;;;;;4155946;28;20041;-67
2021/12/11 00:06:31;;;;;;;49.40;30.80;;;21.20;95.80;;;;;;4155263;28;20057;-67
2021/12/11 00:08:37;;;;;;;44.75;32.72;;;21.20;95.70;;;;;;4156230;28;20068;-67
2021/12/11 00:10:47;;;;;;;58.38;38.38;;;21.10;95.80;;;;;;4158519;28;20064;-67
2021/12/11 00:12:58;;;;;;;71.30;41.45;;;21.20;95.90;;;;;;4158009;28;20488;-68
2021/12/11 00:15:23;;;;;;;68.40;43.92;;;21.20;95.90;;;;;;4155676;28;20069;-67
2021/12/11 00:17:33;;;;;;;66.57;45.47;;;21.30;96.00;;;;;;4157158;28;20064;-67
2021/12/11 00:19:41;;;;;;;66.30;44.42;;;21.30;96.00;;;;;;4159934;28;20496;-67
2021/12/11 00:21:47;;;;;;;52.70;36.15;;;21.40;96.10;;;;;;4163453;28;20474;-67
2021/12/11 00:23:58;;;;;;;60.55;36.25;;;21.40;95.90;;;;;;4163389;28;20556;-67
2021/12/11 00:26:03;;;;;;;50.42;31.90;;;21.30;96.20;;;;;;4162405;28;20403;-67
2021/12/11 00:28:08;;;;;;;49.40;30.17;;;21.30;96.10;;;;;;4159844;28;20136;-67
2021/12/11 00:30:26;;;;;;;44.63;29.77;;;21.40;96.00;;;;;;4164360;28;20049;-67
2021/12/11 00:32:34;;;;;;;39.78;28.42;;;21.50;95.80;;;;;;4162719;28;20041;-67
2021/12/11 00:34:43;;;;;;;42.65;27.63;;;21.50;95.50;;;;;;4163727;28;20381;-67
2021/12/11 00:36:54;;;;;;;35.55;27.05;;;21.50;95.60;;;;;;4161700;28;20046;-67
2021/12/11 00:39:12;;;;;;;37.92;25.85;;;21.60;95.60;;;;;;4164065;28;20506;-67
2021/12/11 00:41:20;;;;;;;33.58;26.58;;;21.60;95.00;;;;;;4162944;28;20095;-67
2021/12/11 00:43:29;;;;;;;35.53;25.30;;;21.60;94.80;;;;;;4164300;28;20060;-67
2021/12/11 00:45:38;;;;;;;36.90;25.70;;;21.50;94.90;;;;;;4163481;28;20072;-67
2021/12/11 00:47:52;;;;;;;39.30;27.05;;;21.50;95.10;;;;;;4164196;28;20042;-67
2021/12/11 00:50:02;;;;;;;39.80;25.35;;;21.50;95.10;;;;;;4163388;28;20041;-67
2021/12/11 00:52:09;;;;;;;30.50;20.45;;;21.50;95.10;;;;;;4162346;28;20042;-67
2021/12/11 00:54:15;;;;;;;40.75;25.80;;;21.50;94.50;;;;;;4160413;28;20072;-64
2021/12/11 00:56:24;;;;;;;39.50;24.63;;;21.60;95.00;;;;;;4159424;28;20053;-63
2021/12/11 00:58:34;;;;;;;34.35;22.95;;;21.70;94.70;;;;;;4158507;28;20076;-66
2021/12/11 01:00:45;;;;;;;30.30;21.27;;;21.70;94.90;;;;;;4160565;28;20128;-66
2021/12/11 01:03:00;;;;;;;35.17;20.85;;;21.80;94.50;;;;;;4157017;28;20045;-67
2021/12/11 01:05:06;;;;;;;26.80;18.17;;;21.80;94.50;;;;;;4160418;28;20037;-65
2021/12/11 01:07:30;;;;;;;36.67;21.45;;;21.80;94.20;;;;;;4159547;28;20057;-67
2021/12/11 01:09:46;;;;;;;36.60;22.75;;;21.90;94.10;;;;;;4160360;28;20057;-64
2021/12/11 01:12:07;;;;;;;36.25;22.52;;;21.90;94.20;;;;;;4159672;28;20416;-68
2021/12/11 01:14:28;;;;;;;41.38;22.02;;;21.90;94.20;;;;;;4159484;28;20057;-65
2021/12/11 01:16:35;;;;;;;34.40;22.00;;;22.00;94.20;;;;;;4160861;28;20190;-65
2021/12/11 01:18:48;;;;;;;32.45;18.48;;;22.10;94.30;;;;;;4161134;28;20554;-64
2021/12/11 01:21:04;;;;;;;29.48;19.48;;;22.00;93.60;;;;;;4160235;28;20042;-64
2021/12/11 01:23:46;;;;;;;37.47;19.98;;;22.00;93.70;;;;;;4160648;28;20052;-66
2021/12/11 01:25:52;;;;;;;31.42;20.40;;;22.00;94.00;;;;;;4159198;28;20054;-66
2021/12/11 01:28:00;;;;;;;34.40;19.45;;;22.10;93.70;;;;;;4161941;28;20128;-66
2021/12/11 01:30:14;;;;;;;28.02;17.38;;;22.10;94.20;;;;;;4161339;28;20076;-66
2021/12/11 01:32:25;;;;;;;27.42;18.55;;;22.20;93.50;;;;;;4164538;28;20471;-64
2021/12/11 01:34:31;;;;;;;22.33;15.18;;;22.10;93.70;;;;;;4161799;28;20500;-66
2021/12/11 01:36:37;;;;;;;22.10;15.02;;;22.30;93.40;;;;;;4163172;28;20050;-63
2021/12/11 01:38:43;;;;;;;24.00;15.30;;;22.40;93.30;;;;;;4177777;28;20127;-65
2021/12/11 01:40:52;;;;;;;30.52;14.50;;;22.40;93.50;;;;;;4177558;28;20049;-65
2021/12/11 01:42:59;;;;;;;24.38;14.13;;;22.50;93.30;;;;;;4177758;28;20120;-65
2021/12/11 01:45:08;;;;;;;20.05;11.75;;;22.60;93.10;;;;;;4177643;28;20189;-65
2021/12/11 01:47:34;;;;;;;30.33;12.10;;;22.60;92.00;;;;;;4161346;28;20165;-65
2021/12/11 01:49:42;;;;;;;19.73;12.05;;;22.70;92.00;;;;;;4177431;28;20088;-65
2021/12/11 01:51:52;;;;;;;19.85;11.00;;;22.70;91.80;;;;;;4174881;28;20041;-64
2021/12/11 01:54:04;;;;;;;15.15;10.95;;;22.80;91.60;;;;;;4177611;28;20503;-64
2021/12/11 01:56:17;;;;;;;18.27;10.85;;;22.80;91.50;;;;;;4176829;28;20040;-65
2021/12/11 01:58:26;;;;;;;20.20;10.93;;;22.90;91.70;;;;;;4176719;28;20128;-66
2021/12/11 02:00:45;;;;;;;19.85;10.90;;;23.00;91.30;;;;;;4177772;28;20045;-65
2021/12/11 02:02:58;;;;;;;19.38;11.10;;;23.00;91.30;;;;;;4177353;28;20526;-65
2021/12/11 02:05:03;;;;;;;18.42;11.13;;;23.00;91.40;;;;;;4177500;28;20037;-64
2021/12/11 02:07:17;;;;;;;17.30;10.98;;;23.10;91.40;;;;;;4177210;28;20103;-65
2021/12/11 02:09:28;;;;;;;19.27;10.63;;;23.10;90.80;;;;;;4173412;28;20058;-66
2021/12/11 02:11:36;;;;;;;20.35;10.27;;;23.20;90.70;;;;;;4162434;28;20045;-66
2021/12/11 02:13:50;;;;;;;20.85;10.50;;;23.20;90.60;;;;;;4162133;28;20044;-65
2021/12/11 02:15:55;;;;;;;17.92;10.75;;;23.20;90.60;;;;;;4162606;28;20128;-65
2021/12/11 02:18:34;;;;;;;27.30;11.80;;;23.30;90.60;;;;;;4172984;28;20049;-65
2021/12/11 02:21:15;;;;;;;19.83;11.13;;;23.30;90.70;;;;;;4170229;28;20045;-65
2021/12/11 02:23:24;;;;;;;16.90;10.50;;;23.40;90.20;;;;;;4160184;28;20570;-65
2021/12/11 02:25:35;;;;;;;17.88;10.82;;;23.50;90.00;;;;;;4158480;28;20111;-65
2021/12/11 02:27:50;;;;;;;17.52;10.43;;;23.50;89.70;;;;;;4162086;28;20080;-65
2021/12/11 02:30:18;;;;;;;16.38;10.73;;;23.50;89.50;;;;;;4156918;28;20046;-65
2021/12/11 02:32:40;;;;;;;17.92;11.52;;;23.50;89.40;;;;;;4158772;28;20049;-65
2021/12/11 02:34:48;;;;;;;20.20;10.85;;;23.60;89.70;;;;;;4159709;28;20458;-64
2021/12/11 02:37:00;;;;;;;26.70;9.73;;;23.80;89.00;;;;;;4158581;28;20053;-64
2021/12/11 02:39:19;;;;;;;16.27;9.07;;;23.80;88.50;;;;;;4160512;28;20041;-63
2021/12/11 02:41:38;;;;;;;17.70;9.18;;;23.80;87.30;;;;;;4159075;28;20049;-64
2021/12/11 02:43:54;;;;;;;15.77;9.07;;;23.90;87.90;;;;;;4159915;28;20041;-67
2021/12/11 02:46:07;;;;;;;13.75;8.95;;;23.90;87.80;;;;;;4158930;28;20440;-66
2021/12/11 02:48:19;;;;;;;15.38;9.57;;;23.90;87.20;;;;;;4158704;28;20129;-66
2021/12/11 02:50:30;;;;;;;14.63;8.68;;;24.00;87.50;;;;;;4161288;28;20437;-66
2021/12/11 02:52:47;;;;;;;18.25;9.80;;;24.00;86.80;;;;;;4159411;28;20499;-66
2021/12/11 02:55:11;;;;;;;16.48;8.82;;;24.00;86.60;;;;;;4154299;28;20084;-66
2021/12/11 02:57:33;;;;;;;15.75;9.10;;;24.10;86.30;;;;;;4160220;28;20057;-66
2021/12/11 02:59:43;;;;;;;13.57;8.40;;;24.10;85.90;;;;;;4161346;28;20049;-67
2021/12/11 03:02:05;;;;;;;14.82;7.47;;;24.20;85.00;;;;;;4162427;28;20628;-66
2021/12/11 03:04:22;;;;;;;11.35;7.18;;;24.20;83.60;;;;;;4162605;28;20048;-67
2021/12/11 03:06:38;;;;;;;11.75;7.30;;;24.30;83.50;;;;;;4161794;28;20492;-67
2021/12/11 03:08:53;;;;;;;15.18;6.88;;;24.40;83.40;;;;;;4162253;28;20502;-66
2021/12/11 03:11:01;;;;;;;14.00;7.60;;;24.40;83.20;;;;;;4160045;28;20511;-66
2021/12/11 03:13:08;;;;;;;14.68;7.85;;;24.40;83.30;;;;;;4161535;28;20124;-66
2021/12/11 03:15:14;;;;;;;16.50;7.00;;;24.50;83.90;;;;;;4159921;28;20049;-67
2021/12/11 03:17:21;;;;;;;13.73;7.68;;;24.50;83.40;;;;;;4161722;28;20156;-66
2021/12/11 03:19:36;;;;;;;20.15;7.32;;;24.60;83.20;;;;;;4157849;28;20049;-66
2021/12/11 03:21:41;;;;;;;11.48;7.55;;;24.60;83.30;;;;;;4161091;28;20037;-66
2021/12/11 03:23:47;;;;;;;19.83;8.05;;;24.70;83.60;;;;;;4161879;28;20495;-67
2021/12/11 03:25:56;;;;;;;15.00;7.10;;;24.80;83.10;;;;;;4158997;28;20483;-67
2021/12/11 03:28:07;;;;;;;12.73;7.00;;;24.80;82.40;;;;;;4160982;28;20051;-67
2021/12/11 03:30:17;;;;;;;10.13;6.50;;;24.90;81.70;;;;;;4161277;28;20045;-66
2021/12/11 03:32:22;;;;;;;12.85;7.25;;;24.90;81.80;;;;;;4161434;28;20064;-67
2021/12/11 03:34:31;;;;;;;11.13;6.93;;;24.90;82.00;;;;;;4161739;28;20099;-67
2021/12/11 03:36:37;;;;;;;12.85;7.07;;;24.90;81.60;;;;;;4156391;28;20049;-67
2021/12/11 03:38:47;;;;;;;11.93;6.97;;;24.90;81.50;;;;;;4161032;28;20168;-67
2021/12/11 03:40:56;;;;;;;;;;;25.00;80.90;;;;;;4158675;28;20048;-67
2021/12/11 03:43:03;;;;;;;13.45;7.18;;;25.10;80.70;;;;;;4161749;28;19929;-67
2021/12/11 03:45:12;;;;;;;10.50;7.05;;;25.20;81.00;;;;;;4161222;28;20037;-67
2021/12/11 03:47:31;;;;;;;10.23;6.72;;;25.20;80.50;;;;;;4159279;28;20057;-67
2021/12/11 03:49:36;;;;;;;10.38;6.50;;;25.20;78.50;;;;;;4160845;28;20577;-67
2021/12/11 03:51:43;;;;;;;14.10;6.70;;;25.40;79.00;;;;;;4160678;28;20052;-67
2021/12/11 03:53:49;;;;;;;11.10;6.22;;;25.30;80.10;;;;;;4161758;28;20149;-67
2021/12/11 03:55:57;;;;;;;12.27;6.80;;;25.50;79.00;;;;;;4159106;28;20570;-67
2021/12/11 03:58:06;;;;;;;10.60;6.32;;;25.50;78.90;;;;;;4161375;28;20045;-68
2021/12/11 04:00:19;;;;;;;10.80;6.80;;;25.40;78.10;;;;;;4159907;28;20124;-68
2021/12/11 04:02:32;;;;;;;10.63;6.40;;;25.50;78.20;;;;;;4160580;28;20087;-68
2021/12/11 04:04:40;;;;;;;9.45;6.65;;;25.50;77.40;;;;;;4160573;28;20052;-68
2021/12/11 04:06:46;;;;;;;9.30;6.38;;;25.60;77.00;;;;;;4159700;28;20411;-68
2021/12/11 04:08:51;;;;;;;12.15;6.82;;;25.60;77.00;;;;;;4161137;28;20037;-68
2021/12/11 04:10:57;;;;;;;10.32;6.00;;;25.70;76.70;;;;;;4160310;28;20045;-68
2021/12/11 04:13:04;;;;;;;11.57;6.53;;;25.70;76.80;;;;;;4159605;28;20120;-67
2021/12/11 04:15:11;;;;;;;11.52;6.07;;;25.70;76.40;;;;;;4160478;28;20052;-67
2021/12/11 04:17:30;;;;;;;14.82;6.93;;;25.80;75.90;;;;;;4160262;28;20426;-67
2021/12/11 04:19:40;;;;;;;11.45;7.18;;;26.00;76.90;;;;;;4160470;28;20041;-67
2021/12/11 04:21:48;;;;;;;13.95;7.65;;;26.00;75.60;;;;;;4161119;28;20155;-66
2021/12/11 04:23:55;;;;;;;15.15;7.28;;;26.00;75.40;;;;;;4158690;28;20475;-67
2021/12/11 04:26:01;;;;;;;12.48;7.15;;;26.00;76.00;;;;;;4161074;28;20117;-66
2021/12/11 04:28:07;;;;;;;12.65;7.45;;;26.10;77.00;;;;;;4160760;28;20050;-67
2021/12/11 04:30:15;;;;;;;15.40;7.13;;;26.20;76.00;;;;;;4160015;28;20040;-67
2021/12/11 04:32:34;;;;;;;13.27;6.63;;;26.10;74.70;;;;;;4160243;28;20073;-67
2021/12/11 04:34:55;;;;;;;10.30;6.25;;;26.20;74.50;;;;;;4158974;28;20049;-66
2021/12/11 04:37:15;;;;;;;11.35;6.90;;;26.30;75.20;;;;;;4161207;28;20144;-66
2021/12/11 04:39:40;;;;;;;19.20;6.18;;;26.40;75.20;;;;;;4158882;28;20046;-68
2021/12/11 04:41:56;;;;;;;10.25;6.35;;;26.40;74.60;;;;;;4159272;28;20306;-68
2021/12/11 04:44:06;;;;;;;13.15;6.20;;;26.40;74.00;;;;;;4152506;28;20045;-68
2021/12/11 04:46:18;;;;;;;9.85;5.78;;;26.40;74.40;;;;;;4153535;28;20111;-68
2021/12/11 04:53:39;;;;;;;13.02;6.00;;;26.50;74.50;;;;;;4157934;28;20347;-68
2021/12/11 05:05:45;;;;;;;11.80;5.80;;;26.70;73.30;;;;;;4181263;28;20079;-67
2021/12/11 05:10:20;;;;;;;9.13;5.35;;;26.90;73.40;;;;;;4158540;28;20060;-68
2021/12/11 05:12:35;;;;;;;13.13;5.75;;;26.90;73.10;;;;;;4160761;28;20318;-68
2021/12/11 05:14:47;;;;;;;10.60;5.70;;;26.90;73.60;;;;;;4158625;28;20073;-68
2021/12/11 05:16:56;;;;;;;9.00;5.70;;;26.90;73.40;;;;;;4161572;28;20041;-68
2021/12/11 05:19:03;;;;;;;9.88;5.80;;;26.90;73.10;;;;;;4159405;28;20073;-68
2021/12/11 05:21:19;;;;;;;11.10;5.90;;;27.00;72.30;;;;;;4163450;28;20439;-68
2021/12/11 05:23:30;;;;;;;9.93;5.70;;;27.00;72.60;;;;;;4161305;28;20046;-68
2021/12/11 05:25:39;;;;;;;10.60;5.82;;;27.10;72.30;;;;;;4162433;28;20096;-68
2021/12/11 05:27:48;;;;;;;9.60;6.13;;;27.20;72.60;;;;;;4162480;28;20060;-68
2021/12/11 05:29:55;;;;;;;12.13;6.40;;;27.20;72.30;;;;;;4163237;28;20046;-68
2021/12/11 05:32:03;;;;;;;9.52;6.22;;;27.30;72.10;;;;;;4161523;28;20401;-68
2021/12/11 05:34:11;;;;;;;9.35;5.72;;;27.30;71.60;;;;;;4162739;28;20045;-68
2021/12/11 05:36:20;;;;;;;8.70;5.75;;;27.30;71.20;;;;;;4161349;28;20054;-68
2021/12/11 05:38:26;;;;;;;9.20;4.97;;;27.30;71.00;;;;;;4162110;28;20055;-68
2021/12/11 05:40:34;;;;;;;8.98;5.30;;;27.30;70.60;;;;;;4162012;28;20124;-68
2021/12/11 05:42:47;;;;;;;14.68;4.72;;;27.30;70.60;;;;;;4162541;28;20097;-68
2021/12/11 05:44:52;;;;;;;8.32;4.82;;;27.30;70.20;;;;;;4161601;28;20396;-68
2021/12/11 05:47:05;;;;;;;13.85;4.97;;;27.30;70.30;;;;;;4161331;28;20038;-68
2021/12/11 05:49:13;;;;;;;8.93;5.22;;;27.40;71.40;;;;;;4162377;28;20049;-68
2021/12/11 05:51:22;;;;;;;11.98;5.30;;;27.40;70.60;;;;;;4160772;28;20164;-69
2021/12/11 05:53:33;;;;;;;7.63;5.05;;;27.50;70.50;;;;;;4162000;28;20400;-68
2021/12/11 05:55:46;;;;;;;7.18;5.10;;;27.50;70.70;;;;;;4162345;28;20345;-68
2021/12/11 05:57:54;;;;;;;9.27;4.82;;;27.50;70.70;;;;;;4162689;28;20455;-68
2021/12/11 06:00:08;;;;;;;11.50;5.32;;;27.50;70.50;;;;;;4161058;28;20471;-68
2021/12/11 06:02:38;;;;;;;8.55;4.72;;;27.60;70.50;;;;;;4160536;28;20050;-68
2021/12/11 06:04:47;;;;;;;11.60;5.40;;;27.60;70.70;;;;;;4163105;28;20042;-69
2021/12/11 06:06:53;;;;;;;10.93;5.10;;;27.70;70.20;;;;;;4162607;28;20057;-68
2021/12/11 06:08:59;;;;;;;9.75;4.57;;;27.70;70.50;;;;;;4160571;28;20041;-69
2021/12/11 06:11:06;;;;;;;7.68;4.82;;;27.70;70.20;;;;;;4161411;28;20103;-68
2021/12/11 06:13:16;;;;;;;8.32;4.93;;;27.80;70.70;;;;;;4160821;28;20053;-69
2021/12/11 06:15:29;;;;;;;8.13;4.95;;;27.80;70.40;;;;;;4160204;28;20038;-68
2021/12/11 06:17:41;;;;;;;9.30;5.10;;;27.80;69.60;;;;;;4161309;28;20140;-69
2021/12/11 06:19:56;;;;;;;9.98;5.50;;;28.00;70.00;;;;;;4160845;28;20088;-68
2021/12/11 06:22:03;;;;;;;8.90;5.25;;;28.00;69.30;;;;;;4162182;28;20496;-68
2021/12/11 06:24:09;;;;;;;11.82;5.35;;;27.90;69.20;;;;;;4161359;28;20476;-68
2021/12/11 06:26:16;;;;;;;10.10;4.90;;;27.90;69.70;;;;;;4160773;28;20037;-68
2021/12/11 06:28:25;;;;;;;6.95;4.78;;;28.00;70.30;;;;;;4160205;28;20068;-66
2021/12/11 06:30:32;;;;;;;9.48;4.70;;;28.00;69.80;;;;;;4161268;28;20375;-67
2021/12/11 06:32:37;;;;;;;9.75;4.68;;;28.10;69.80;;;;;;4160850;28;20060;-66
2021/12/11 06:34:42;;;;;;;7.25;4.93;;;28.10;69.70;;;;;;4161011;28;20080;-66
2021/12/11 06:36:50;;;;;;;13.02;4.80;;;28.10;69.20;;;;;;4161362;28;20129;-67
2021/12/11 06:39:03;;;;;;;7.57;4.57;;;28.20;69.40;;;;;;4160472;28;20098;-67
2021/12/11 06:41:13;;;;;;;9.52;4.82;;;28.20;68.80;;;;;;4160581;28;20498;-67
2021/12/11 06:43:18;;;;;;;8.05;4.65;;;28.20;69.50;;;;;;4160969;28;20045;-68
2021/12/11 06:45:26;;;;;;;10.07;4.50;;;28.30;70.50;;;;;;4160524;28;20045;-68
2021/12/11 06:47:35;;;;;;;6.25;4.28;;;28.30;69.40;;;;;;4161684;28;20128;-68
2021/12/11 06:49:41;;;;;;;5.93;4.57;;;28.30;68.90;;;;;;4161383;28;20041;-68
2021/12/11 06:51:48;;;;;;;5.40;4.28;;;28.30;68.40;;;;;;4159197;28;20143;-68
2021/12/11 06:54:03;;;;;;;10.10;4.55;;;28.30;68.90;;;;;;4161756;28;20103;-68
2021/12/11 06:56:13;;;;;;;9.90;4.72;;;28.40;69.50;;;;;;4160043;28;20192;-68
2021/12/11 06:58:19;;;;;;;11.18;4.78;;;28.40;69.20;;;;;;4161339;28;20523;-68
2021/12/11 07:00:26;;;;;;;7.82;4.53;;;28.40;68.70;;;;;;4161255;28;20416;-68
2021/12/11 07:02:32;;;;;;;7.95;4.53;;;28.40;68.90;;;;;;4159639;28;20381;-68
2021/12/11 07:04:56;;;;;;;8.93;4.82;;;28.40;69.20;;;;;;4161306;28;20049;-68
2021/12/11 07:07:01;;;;;;;7.20;4.65;;;28.50;68.70;;;;;;4161011;28;20425;-68
2021/12/11 07:09:11;;;;;;;11.18;4.72;;;28.60;69.80;;;;;;4161343;28;20558;-69
2021/12/11 07:11:17;;;;;;;10.77;4.82;;;28.70;68.30;;;;;;4161088;28;20467;-68
2021/12/11 07:13:23;;;;;;;8.43;4.35;;;28.70;69.00;;;;;;4161418;28;20558;-68
2021/12/11 07:15:28;;;;;;;11.23;4.53;;;28.70;68.90;;;;;;4160540;28;20189;-68
2021/12/11 07:17:41;;;;;;;9.25;4.60;;;28.70;68.30;;;;;;4160866;28;20393;-68
2021/12/11 07:19:46;;;;;;;7.18;4.40;;;28.60;67.90;;;;;;4160042;28;20068;-68
2021/12/11 07:22:02;;;;;;;10.00;4.88;;;28.60;67.10;;;;;;4160638;28;20037;-68
2021/12/11 07:24:09;;;;;;;10.73;5.03;;;28.70;67.10;;;;;;4171177;28;20420;-68
2021/12/11 07:26:22;;;;;;;7.72;4.80;;;28.60;67.70;;;;;;4159973;28;20053;-68
2021/12/11 07:28:30;;;;;;;11.57;4.78;;;28.50;68.60;;;;;;4165820;28;20037;-68
2021/12/11 07:30:36;;;;;;;5.85;3.72;;;28.50;67.70;;;;;;4160817;28;20049;-68
2021/12/11 07:32:44;;;;;;;11.57;4.15;;;28.50;68.00;;;;;;4169859;28;20057;-68
2021/12/11 07:34:49;;;;;;;8.57;5.70;;;28.60;67.50;;;;;;4160905;28;20056;-68
2021/12/11 07:36:55;;;;;;;11.73;7.25;;;28.60;67.80;;;;;;4161744;28;20046;-68
2021/12/11 07:39:05;;;;;;;12.52;7.00;;;28.70;67.20;;;;;;4161369;28;20080;-67
2021/12/11 07:41:12;;;;;;;7.03;4.65;;;28.70;67.40;;;;;;4153660;28;20076;-68
2021/12/11 07:43:20;;;;;;;7.80;4.95;;;28.70;67.90;;;;;;4152415;28;20048;-68
2021/12/11 07:45:27;;;;;;;8.85;4.13;;;28.60;67.50;;;;;;4157317;28;20132;-67
2021/12/11 07:47:34;;;;;;;7.45;4.30;;;28.60;67.60;;;;;;4156924;28;20551;-67
2021/12/11 07:49:41;;;;;;;6.93;3.95;;;28.60;67.90;;;;;;4157896;28;20073;-67
2021/12/11 07:51:48;;;;;;;9.15;3.90;;;28.60;67.20;;;;;;4159589;28;20049;-68
2021/12/11 07:53:53;;;;;;;6.65;3.65;;;28.70;67.10;;;;;;4159178;28;20052;-68
2021/12/11 07:56:00;;;;;;;6.13;3.97;;;28.70;67.20;;;;;;4159551;28;20369;-68
2021/12/11 07:58:07;;;;;;;7.32;3.83;;;28.70;66.60;;;;;;4159221;28;20069;-68
2021/12/11 08:00:24;;;;;;;9.45;4.10;;;28.60;66.80;;;;;;4159336;28;20084;-68
2021/12/11 08:02:34;;;;;;;7.32;4.07;;;28.60;67.40;;;;;;4158964;28;20561;-68
2021/12/11 08:04:46;;;;;;;6.97;4.13;;;28.50;67.50;;;;;;4159548;28;20156;-68
2021/12/11 08:06:53;;;;;;;6.55;4.55;;;28.50;67.40;;;;;;4159694;28;20338;-68
2021/12/11 08:09:01;;;;;;;8.50;4.32;;;28.50;67.30;;;;;;4157181;28;20065;-68
2021/12/11 08:11:11;;;;;;;6.47;4.78;;;28.50;67.50;;;;;;4161137;28;20037;-68
2021/12/11 08:13:20;;;;;;;7.32;4.63;;;28.50;67.50;;;;;;4161511;28;20041;-68
2021/12/11 08:15:26;;;;;;;8.18;4.40;;;28.50;66.90;;;;;;4160519;28;20053;-68
2021/12/11 08:17:35;;;;;;;9.55;5.22;;;28.50;67.40;;;;;;4161664;28;20069;-68
2021/12/11 08:19:41;;;;;;;6.63;4.22;;;28.50;67.60;;;;;;4161626;28;20052;-67
2021/12/11 08:21:52;;;;;;;12.15;4.32;;;28.50;66.20;;;;;;4144577;28;20128;-68
2021/12/11 08:24:04;;;;;;;8.88;3.92;;;28.60;66.10;;;;;;4149927;28;20406;-68
2021/12/11 08:26:08;;;;;;;6.85;3.92;;;28.50;66.60;;;;;;4165192;28;20045;-68
2021/12/11 08:28:17;;;;;;;5.78;3.85;;;28.40;66.70;;;;;;4159233;28;20077;-68
2021/12/11 08:30:33;;;;;;;8.38;3.60;;;28.40;66.70;;;;;;4162917;28;20045;-68
2021/12/11 08:32:53;;;;;;;7.32;3.88;;;28.40;67.20;;;;;;4162204;28;20048;-67
2021/12/11 08:35:01;;;;;;;6.03;4.45;;;28.50;66.90;;;;;;4165602;28;20063;-68
2021/12/11 08:37:08;;;;;;;7.25;4.18;;;28.60;66.80;;;;;;4167962;28;20081;-68
2021/12/11 08:39:14;;;;;;;5.63;3.70;;;28.70;66.40;;;;;;4159341;28;20307;-68
2021/12/11 08:41:24;;;;;;;11.80;4.22;;;28.60;66.50;;;;;;4166548;28;20121;-68
2021/12/11 08:43:31;;;;;;;8.93;4.50;;;28.70;65.90;;;;;;4169664;28;20084;-67
2021/12/11 08:45:47;;;;;;;7.63;4.80;;;28.70;65.70;;;;;;4161619;28;20132;-68
2021/12/11 08:47:59;;;;;;;6.97;4.25;;;28.70;66.40;;;;;;4168070;28;20486;-68
2021/12/11 08:50:08;;;;;;;8.50;4.13;;;28.60;66.60;;;;;;4169537;28;20416;-67
2021/12/11 08:52:25;;;;;;;6.35;4.35;;;28.60;67.10;;;;;;4163756;28;20414;-67
2021/12/11 08:54:31;;;;;;;8.80;4.80;;;28.60;66.50;;;;;;4160701;28;20056;-67
2021/12/11 08:56:38;;;;;;;5.85;4.20;;;28.60;66.30;;;;;;4161404;28;20040;-67
2021/12/11 08:58:44;;;;;;;10.05;5.00;;;28.50;66.40;;;;;;4161415;28;20045;-67
2021/12/11 09:01:14;;;;;;;12.35;4.38;;;28.50;66.40;;;;;;4162438;28;20097;-67
2021/12/11 09:03:31;;;;;;;5.72;4.13;;;28.50;67.00;;;;;;4163996;28;20045;-68
2021/12/11 09:05:45;;;;;;;11.98;4.15;;;28.50;67.00;;;;;;4160436;28;20033;-68
2021/12/11 09:07:54;;;;;;;10.15;4.45;;;28.50;66.90;;;;;;4160289;28;20045;-68
2021/12/11 09:10:20;;;;;;;7.70;4.25;;;28.50;67.20;;;;;;4167299;28;20721;-68
2021/12/11 09:12:34;;;;;;;7.15;4.47;;;28.50;66.80;;;;;;4168357;28;20103;-68
2021/12/11 09:14:51;;;;;;;9.40;4.28;;;28.50;67.00;;;;;;4162993;28;20049;-68
2021/12/11 09:17:19;;;;;;;11.13;4.72;;;28.50;66.90;;;;;;4161059;28;20049;-68
2021/12/11 09:19:38;;;;;;;11.60;4.15;;;28.50;67.40;;;;;;4159446;28;20486;-68
2021/12/11 09:21:50;;;;;;;6.78;4.65;;;28.50;66.80;;;;;;4167582;28;20069;-68
2021/12/11 09:24:05;;;;;;;9.20;4.77;;;28.50;67.00;;;;;;4160759;28;20061;-68
2021/12/11 09:26:25;;;;;;;8.52;4.70;;;28.50;67.00;;;;;;4161740;28;20128;-68
2021/12/11 09:28:39;;;;;;;8.85;4.40;;;28.40;67.20;;;;;;4160977;28;20396;-68
2021/12/11 09:30:52;;;;;;;8.75;5.10;;;28.40;67.60;;;;;;4169034;28;20103;-68
2021/12/11 09:33:06;;;;;;;12.50;5.40;;;28.50;67.50;;;;;;4182957;28;20044;-68
2021/12/11 09:35:29;;;;;;;11.57;5.15;;;28.40;67.90;;;;;;4164627;28;20081;-68
2021/12/11 09:37:36;;;;;;;17.38;5.22;;;28.40;67.30;;;;;;4160173;28;20083;-67
2021/12/11 09:39:54;;;;;;;11.95;4.72;;;28.40;67.50;;;;;;4157449;28;20057;-67
2021/12/11 09:42:00;;;;;;;10.27;4.95;;;28.30;67.40;;;;;;4166157;28;20320;-67
2021/12/11 09:44:15;;;;;;;7.80;5.07;;;28.30;67.50;;;;;;4164854;28;20056;-68
2021/12/11 09:46:35;;;;;;;11.60;5.13;;;28.30;67.50;;;;;;4164274;28;20041;-67
2021/12/11 09:48:42;;;;;;;10.95;5.55;;;28.20;67.50;;;;;;4165249;28;20049;-65
2021/12/11 09:50:53;;;;;;;16.80;5.72;;;28.20;67.80;;;;;;4165848;28;20072;-67
2021/12/11 09:52:58;;;;;;;9.55;6.35;;;28.20;68.20;;;;;;4171404;28;20057;-67
2021/12/11 09:55:12;;;;;;;12.68;7.20;;;28.20;68.00;;;;;;4169519;28;20040;-67
2021/12/11 09:57:20;;;;;;;17.88;8.00;;;28.20;68.30;;;;;;4174013;28;20395;-67
2021/12/11 09:59:29;;;;;;;22.70;8.02;;;28.20;68.40;;;;;;4169775;28;20051;-68
2021/12/11 10:01:39;;;;;;;10.45;6.43;;;28.20;68.40;;;;;;4170738;28;20534;-69
2021/12/11 10:03:56;;;;;;;10.65;6.93;;;28.10;68.40;;;;;;4169243;28;20075;-68
2021/12/11 10:06:13;;;;;;;21.05;10.60;;;28.10;68.50;;;;;;4166325;28;20376;-67
2021/12/11 10:10:33;;;;;;;15.63;9.18;;;28.10;69.00;;;;;;4161900;28;20059;-67
2021/12/11 10:12:43;;;;;;;15.32;7.60;;;28.00;68.90;;;;;;4165060;28;20557;-66
2021/12/11 10:14:55;;;;;;;13.52;7.60;;;28.00;68.70;;;;;;4169567;28;20053;-66
2021/12/11 10:17:13;;;;;;;13.50;7.68;;;28.00;69.20;;;;;;4169626;28;20441;-66
2021/12/11 10:19:21;;;;;;;19.10;8.25;;;28.00;69.20;;;;;;4172132;28;20484;-66
2021/12/11 10:21:45;;;;;;;21.27;7.97;;;27.90;69.40;;;;;;4168835;28;20041;-65
2021/12/11 10:23:52;;;;;;;25.85;8.38;;;27.90;69.50;;;;;;4167015;28;20172;-66
2021/12/11 10:26:01;;;;;;;17.95;9.25;;;27.90;69.80;;;;;;4169053;28;20399;-66
2021/12/11 10:28:09;;;;;;;22.15;8.80;;;27.80;70.10;;;;;;4168996;28;20391;-66
2021/12/11 10:30:21;;;;;;;15.93;8.77;;;27.80;70.30;;;;;;4171296;28;20148;-65
2021/12/11 10:32:31;;;;;;;18.25;8.75;;;27.80;70.40;;;;;;4168974;28;20090;-65
2021/12/11 10:34:36;;;;;;;17.10;9.10;;;27.70;70.70;;;;;;4168406;28;20045;-66
2021/12/11 10:36:46;;;;;;;23.60;11.48;;;27.70;70.80;;;;;;4168233;28;20045;-66
2021/12/11 10:38:55;;;;;;;32.50;12.67;;;27.60;71.20;;;;;;4168411;28;20050;-66
2021/12/11 10:41:02;;;;;;;49.83;15.18;;;27.60;71.30;;;;;;4171018;28;20050;-66
2021/12/11 10:43:12;;;;;;;63.00;18.45;;;27.50;71.80;;;;;;4166212;28;20049;-66
2021/12/11 10:45:17;;;;;;;75.15;18.30;;;27.50;72.40;;;;;;4160733;28;20049;-66
2021/12/11 10:47:28;;;;;;;63.60;19.08;;;27.40;72.60;;;;;;4159769;28;20038;-65
2021/12/11 10:49:48;;;;;;;112.10;20.95;;;27.40;73.10;;;;;;4161323;28;20148;-66
2021/12/11 10:52:03;;;;;;;50.40;17.17;;;27.30;73.20;;;;;;4165272;28;20044;-66
2021/12/11 10:54:11;;;;;;;46.20;17.08;;;27.30;73.20;;;;;;4168573;28;20037;-66
2021/12/11 10:56:17;;;;;;;32.88;16.55;;;27.30;73.50;;;;;;4170081;28;20108;-63
2021/12/11 10:58:25;;;;;;;42.65;18.65;;;27.20;73.60;;;;;;4165376;28;20057;-65
2021/12/11 11:00:40;;;;;;;37.25;19.00;;;27.20;74.00;;;;;;4166027;28;20048;-65
2021/12/11 11:02:47;;;;;;;42.97;21.83;;;27.20;73.80;;;;;;4159204;28;20418;-65
2021/12/11 11:04:58;;;;;;;53.30;24.45;;;27.10;73.30;;;;;;4166317;28;20046;-65
2021/12/11 11:07:04;;;;;;;45.80;25.52;;;27.10;73.10;;;;;;4159221;28;20049;-66
2021/12/11 11:09:10;;;;;;;53.05;29.33;;;27.10;74.20;;;;;;4161788;28;20132;-66
2021/12/11 11:11:24;;;;;;;52.17;28.52;;;27.00;73.10;;;;;;4165472;28;20053;-67
2021/12/11 11:13:37;;;;;;;56.70;30.00;;;27.00;72.90;;;;;;4166524;28;20053;-67
2021/12/11 11:15:43;;;;;;;59.22;32.60;;;27.00;73.40;;;;;;4162844;28;20144;-66
2021/12/11 11:17:50;;;;;;;72.10;38.58;;;26.90;73.40;;;;;;4159730;28;20058;-66
2021/12/11 11:19:56;;;;;;;69.82;41.20;;;26.90;73.60;;;;;;4158306;28;20091;-67
2021/12/11 11:22:02;;;;;;;69.88;39.38;;;26.90;73.80;;;;;;4157566;28;20045;-67
2021/12/11 11:24:10;;;;;;;69.85;37.95;;;26.90;73.90;;;;;;4157520;28;20133;-67
2021/12/11 11:26:21;;;;;;;63.17;36.08;;;26.90;73.50;;;;;;4159800;28;20148;-67
2021/12/11 11:28:28;;;;;;;56.53;32.75;;;26.90;73.20;;;;;;4154882;28;20055;-66
2021/12/11 11:30:38;;;;;;;48.80;28.73;;;26.90;72.90;;;;;;4153115;28;20455;-66
2021/12/11 11:32:45;;;;;;;46.72;27.40;;;26.90;72.80;;;;;;4154382;28;20053;-67